createdAt,value
2023-03-20T00:00:23.802Z,28.20
2023-03-20T00:01:29.598Z,27.30
2023-03-20T00:02:31.968Z,28.70
2023-03-20T00:03:34.641Z,27.90
2023-03-20T00:04:37.432Z,26.20
2023-03-20T00:05:40.790Z,26.70
2023-03-20T00:06:43.498Z,26.00
2023-03-20T00:07:47.591Z,27.90
2023-03-20T00:08:52.840Z,26.00
2023-03-20T00:09:57.085Z,27.80
2023-03-20T00:11:00.185Z,26.10
2023-03-20T00:12:02.584Z,26.90
2023-03-20T00:13:07.254Z,26.30
2023-03-20T00:14:13.238Z,24.80
2023-03-20T00:16:39.739Z,24.50
2023-03-20T00:17:42.133Z,25.50
2023-03-20T00:18:44.614Z,25.30
2023-03-20T00:19:47.060Z,25.70
2023-03-20T00:20:51.704Z,25.10
2023-03-20T00:21:55.145Z,24.70
2023-03-20T00:22:57.592Z,23.70
2023-03-20T00:24:00.216Z,26.20
2023-03-20T00:25:02.974Z,24.70
2023-03-20T00:26:08.501Z,24.70
2023-03-20T00:27:14.438Z,25.30
2023-03-20T00:28:40.125Z,24.60
2023-03-20T00:29:44.585Z,25.70
2023-03-20T00:30:47.511Z,25.40
2023-03-20T00:31:50.349Z,24.91
2023-03-20T00:32:53.240Z,25.64
2023-03-20T00:33:58.210Z,24.00
2023-03-20T00:35:02.395Z,25.50
2023-03-20T00:36:06.016Z,24.60
2023-03-20T00:37:11.064Z,25.00
2023-03-20T00:38:13.480Z,22.10
2023-03-20T00:39:15.637Z,25.50
2023-03-20T00:40:18.260Z,22.90
2023-03-20T00:41:27.532Z,24.00
2023-03-20T00:42:29.718Z,24.50
2023-03-20T00:43:32.064Z,24.10
2023-03-20T00:44:42.507Z,25.40
2023-03-20T00:45:46.043Z,22.90
2023-03-20T00:46:52.118Z,22.70
2023-03-20T00:47:55.344Z,22.40
2023-03-20T00:48:57.709Z,23.00
2023-03-20T00:49:59.921Z,24.30
2023-03-20T00:51:02.153Z,22.70
2023-03-20T00:52:05.225Z,24.00
2023-03-20T00:53:10.722Z,22.09
2023-03-20T00:54:17.267Z,22.70
2023-03-20T00:55:22.580Z,23.10
2023-03-20T00:56:32.195Z,21.50
2023-03-20T00:57:40.609Z,23.40
2023-03-20T00:58:43.010Z,25.00
2023-03-20T01:00:04.749Z,25.70
2023-03-20T01:01:07.115Z,25.20
2023-03-20T01:02:11.613Z,28.60
2023-03-20T01:03:20.038Z,25.90
2023-03-20T01:04:23.759Z,30.30
2023-03-20T01:05:27.128Z,30.30
2023-03-20T01:06:30.828Z,28.90
2023-03-20T01:07:33.342Z,28.90
2023-03-20T01:08:37.685Z,27.90
2023-03-20T01:09:40.030Z,25.90
2023-03-20T01:10:44.578Z,25.90
2023-03-20T01:11:47.414Z,25.20
2023-03-20T01:12:51.160Z,25.60
2023-03-20T01:13:53.929Z,26.50
2023-03-20T01:14:58.111Z,18.20
2023-03-20T01:16:00.964Z,24.80
2023-03-20T01:17:03.894Z,23.00
2023-03-20T01:18:08.878Z,23.80
2023-03-20T01:19:15.858Z,25.80
2023-03-20T01:20:25.036Z,25.00
2023-03-20T01:21:27.345Z,27.50
2023-03-20T01:22:30.381Z,27.50
2023-03-20T01:23:33.597Z,28.91
2023-03-20T01:24:38.184Z,27.90
2023-03-20T01:25:41.237Z,29.90
2023-03-20T01:26:45.878Z,35.00
2023-03-20T01:27:52.293Z,33.00
2023-03-20T01:28:54.659Z,31.60
2023-03-20T01:29:58.309Z,33.50
2023-03-20T01:31:01.023Z,34.20
2023-03-20T01:32:14.769Z,33.50
2023-03-20T01:33:20.970Z,33.60
2023-03-20T01:34:25.379Z,30.70
2023-03-20T01:35:28.535Z,33.80
2023-03-20T01:36:32.533Z,33.40
2023-03-20T01:37:35.705Z,32.10
2023-03-20T01:38:40.117Z,32.70
2023-03-20T01:39:43.103Z,30.40
2023-03-20T01:40:59.477Z,29.60
2023-03-20T01:42:04.343Z,27.90
2023-03-20T01:43:16.487Z,29.80
2023-03-20T01:44:31.563Z,30.90
2023-03-20T01:45:36.536Z,31.70
2023-03-20T01:46:40.104Z,30.60
2023-03-20T01:47:44.681Z,28.10
2023-03-20T01:48:55.617Z,31.00
2023-03-20T01:50:27.012Z,30.70
2023-03-20T01:51:40.213Z,30.00
2023-03-20T01:52:45.812Z,29.20
2023-03-20T01:53:52.047Z,27.50
2023-03-20T01:54:54.443Z,28.20
2023-03-20T01:56:00.536Z,25.70
2023-03-20T01:57:17.649Z,25.90
2023-03-20T01:58:26.792Z,27.40
2023-03-20T01:59:44.825Z,28.50
2023-03-20T02:00:50.360Z,29.30
2023-03-20T02:01:52.796Z,23.80
2023-03-20T02:02:57.136Z,28.40
2023-03-20T02:04:08.476Z,28.00
2023-03-20T02:05:16.773Z,27.30
2023-03-20T02:06:22.310Z,28.10
2023-03-20T02:07:27.133Z,28.50
2023-03-20T02:08:49.805Z,28.30
2023-03-20T02:09:53.021Z,28.80
2023-03-20T02:11:00.913Z,26.70
2023-03-20T02:12:05.828Z,27.80
2023-03-20T02:13:10.613Z,27.60
2023-03-20T02:14:15.387Z,26.90
2023-03-20T02:15:19.978Z,26.40
2023-03-20T02:16:24.394Z,27.00
2023-03-20T02:17:42.138Z,25.30
2023-03-20T02:18:48.209Z,25.60
2023-03-20T02:20:12.256Z,25.60
2023-03-20T02:21:37.534Z,26.90
2023-03-20T02:23:05.728Z,26.10
2023-03-20T02:24:26.580Z,27.00
2023-03-20T02:26:06.807Z,23.40
2023-03-20T02:27:25.305Z,27.70
2023-03-20T02:28:49.160Z,27.30
2023-03-20T02:30:25.789Z,28.60
2023-03-20T02:31:38.377Z,29.80
2023-03-20T02:32:56.284Z,31.10
2023-03-20T02:34:23.065Z,30.10
2023-03-20T02:35:38.469Z,29.50
2023-03-20T02:36:45.116Z,30.20
2023-03-20T02:38:14.387Z,29.60
2023-03-20T02:39:23.718Z,29.20
2023-03-20T02:40:35.667Z,28.70
2023-03-20T02:41:47.818Z,27.80
2023-03-20T02:43:06.204Z,27.50
2023-03-20T02:44:12.169Z,27.50
2023-03-20T02:45:35.922Z,29.10
2023-03-20T02:47:12.541Z,29.50
2023-03-20T02:48:30.179Z,29.40
2023-03-20T02:49:44.943Z,30.20
2023-03-20T02:51:02.786Z,30.40
2023-03-20T02:53:52.999Z,30.60
2023-03-20T02:55:14.433Z,32.40
2023-03-20T02:56:22.745Z,33.40
2023-03-20T02:57:43.886Z,32.50
2023-03-20T02:58:53.055Z,31.10
2023-03-20T03:09:03.469Z,30.00
2023-03-20T03:11:12.271Z,28.20
2023-03-20T03:12:19.179Z,27.80
2023-03-20T03:14:45.237Z,26.50
2023-03-20T03:15:53.210Z,27.10
2023-03-20T03:16:57.836Z,28.10
2023-03-20T03:19:18.071Z,26.20
2023-03-20T03:23:48.389Z,26.80
2023-03-20T03:24:52.831Z,28.70
2023-03-20T03:25:58.515Z,29.50
2023-03-20T03:27:04.603Z,27.40
2023-03-20T03:28:38.534Z,29.40
2023-03-20T03:29:43.678Z,29.30
2023-03-20T03:30:47.386Z,28.90
2023-03-20T03:31:51.495Z,29.80
2023-03-20T03:33:16.560Z,31.50
2023-03-20T03:34:22.203Z,32.50
2023-03-20T03:35:25.127Z,32.20
2023-03-20T03:36:37.370Z,31.36
2023-03-20T03:37:49.926Z,31.40
2023-03-20T03:39:14.025Z,31.30
2023-03-20T03:40:20.437Z,33.70
2023-03-20T03:41:32.275Z,34.40
2023-03-20T03:44:17.616Z,33.20
2023-03-20T03:45:24.535Z,33.40
2023-03-20T03:46:42.252Z,32.00
2023-03-20T03:47:57.237Z,32.20
2023-03-20T03:49:02.340Z,32.90
2023-03-20T03:51:31.926Z,32.90
2023-03-20T03:52:38.247Z,32.60
2023-03-20T03:53:48.457Z,31.90
2023-03-20T03:55:07.286Z,31.70
2023-03-20T03:56:13.887Z,31.50
2023-03-20T03:57:20.385Z,31.30
2023-03-20T03:58:36.379Z,32.60
2023-03-20T03:59:46.770Z,32.80
2023-03-20T04:00:51.772Z,30.20
2023-03-20T04:01:57.355Z,31.60
2023-03-20T04:03:00.063Z,31.10
2023-03-20T04:04:06.583Z,30.70
2023-03-20T04:05:10.127Z,31.70
2023-03-20T04:06:14.000Z,31.10
2023-03-20T04:07:16.372Z,28.20
2023-03-20T04:08:19.748Z,30.60
2023-03-20T04:09:22.336Z,29.30
2023-03-20T04:10:25.635Z,31.50
2023-03-20T04:11:28.694Z,27.36
2023-03-20T04:12:40.098Z,28.50
2023-03-20T04:13:47.624Z,31.00
2023-03-20T04:14:50.410Z,31.40
2023-03-20T04:15:53.215Z,32.20
2023-03-20T04:16:56.222Z,31.18
2023-03-20T04:17:58.689Z,28.80
2023-03-20T04:19:01.160Z,31.80
2023-03-20T04:20:06.941Z,32.91
2023-03-20T04:21:10.383Z,32.40
2023-03-20T04:22:12.794Z,33.70
2023-03-20T04:23:15.353Z,30.70
2023-03-20T04:24:18.218Z,33.09
2023-03-20T04:25:23.242Z,33.40
2023-03-20T04:26:27.723Z,30.60
2023-03-20T04:27:30.443Z,32.45
2023-03-20T04:28:33.218Z,33.40
2023-03-20T04:29:54.194Z,33.30
2023-03-20T04:31:15.672Z,31.70
2023-03-20T04:32:23.551Z,32.70
2023-03-20T04:33:40.019Z,33.30
2023-03-20T04:34:48.488Z,32.90
2023-03-20T04:36:10.107Z,32.10
2023-03-20T04:37:13.305Z,33.10
2023-03-20T04:38:18.737Z,33.90
2023-03-20T04:39:21.806Z,33.70
2023-03-20T04:40:24.807Z,33.36
2023-03-20T04:41:28.412Z,34.73
2023-03-20T04:42:32.588Z,35.70
2023-03-20T04:43:36.874Z,34.80
2023-03-20T04:44:39.730Z,35.80
2023-03-20T04:45:43.198Z,37.90
2023-03-20T04:46:45.696Z,36.30
2023-03-20T04:47:50.112Z,37.60
2023-03-20T04:48:54.408Z,41.50
2023-03-20T04:49:57.278Z,44.40
2023-03-20T04:50:59.749Z,54.10
2023-03-20T04:52:04.468Z,46.40
2023-03-20T04:53:15.883Z,54.50
2023-03-20T04:54:20.123Z,53.90
2023-03-20T04:55:22.788Z,72.10
2023-03-20T04:56:25.744Z,83.30
2023-03-20T04:57:33.156Z,79.60
2023-03-20T04:58:36.277Z,84.40
2023-03-20T04:59:39.679Z,83.50
2023-03-20T05:00:44.385Z,74.45
2023-03-20T05:01:46.841Z,82.70
2023-03-20T05:02:49.023Z,74.40
2023-03-20T05:03:52.614Z,73.64
2023-03-20T05:04:55.540Z,67.00
2023-03-20T05:05:58.617Z,64.90
2023-03-20T05:07:01.467Z,57.20
2023-03-20T05:08:06.225Z,54.10
2023-03-20T05:09:10.736Z,61.00
2023-03-20T05:10:14.203Z,56.30
2023-03-20T05:11:22.006Z,56.20
2023-03-20T05:12:32.034Z,57.30
2023-03-20T05:13:37.362Z,57.70
2023-03-20T05:14:47.524Z,53.00
2023-03-20T05:16:02.125Z,53.50
2023-03-20T05:17:12.362Z,54.70
2023-03-20T05:18:23.737Z,53.80
2023-03-20T05:20:43.910Z,50.30
2023-03-20T05:22:05.138Z,50.30
2023-03-20T05:23:26.470Z,50.50
2023-03-20T05:24:47.446Z,49.20
2023-03-20T05:25:54.590Z,51.20
2023-03-20T05:27:02.302Z,54.80
2023-03-20T05:28:23.525Z,55.20
2023-03-20T05:30:44.385Z,55.60
2023-03-20T05:33:01.415Z,52.60
2023-03-20T05:34:04.790Z,51.30
2023-03-20T05:35:09.946Z,44.60
2023-03-20T05:36:20.130Z,44.40
2023-03-20T05:37:33.742Z,41.50
2023-03-20T05:38:44.080Z,42.10
2023-03-20T05:39:54.285Z,43.60
2023-03-20T05:41:06.558Z,49.40
2023-03-20T05:42:19.805Z,46.90
2023-03-20T05:43:38.428Z,48.20
2023-03-20T05:44:55.186Z,38.80
2023-03-20T05:47:16.684Z,46.70
2023-03-20T05:48:37.210Z,45.00
2023-03-20T05:49:57.615Z,42.90
2023-03-20T05:51:07.960Z,40.90
2023-03-20T05:52:15.511Z,42.70
2023-03-20T05:53:35.989Z,41.40
2023-03-20T05:54:46.906Z,40.00
2023-03-20T05:56:00.415Z,37.40
2023-03-20T05:57:15.752Z,39.00
2023-03-20T05:58:20.067Z,38.00
2023-03-20T05:59:24.294Z,39.30
2023-03-20T06:00:45.490Z,37.40
2023-03-20T06:02:07.543Z,38.40
2023-03-20T06:03:12.562Z,39.90
2023-03-20T06:04:20.041Z,40.00
2023-03-20T06:05:31.171Z,40.40
2023-03-20T06:07:45.752Z,37.80
2023-03-20T06:08:50.835Z,40.30
2023-03-20T06:09:53.180Z,38.55
2023-03-20T06:10:56.738Z,41.50
2023-03-20T06:11:59.254Z,40.80
2023-03-20T06:13:03.218Z,39.70
2023-03-20T06:14:05.598Z,41.80
2023-03-20T06:15:10.495Z,42.70
2023-03-20T06:16:16.031Z,44.20
2023-03-20T06:17:19.125Z,40.10
2023-03-20T06:18:23.453Z,42.70
2023-03-20T06:19:27.709Z,42.00
2023-03-20T06:20:31.035Z,43.70
2023-03-20T06:21:33.671Z,43.80
2023-03-20T06:22:37.366Z,40.70
2023-03-20T06:23:40.034Z,43.10
2023-03-20T06:24:42.864Z,41.60
2023-03-20T06:26:57.301Z,38.70
2023-03-20T06:28:00.300Z,40.55
2023-03-20T06:29:03.020Z,38.30
2023-03-20T06:30:07.057Z,41.00
2023-03-20T06:31:12.374Z,40.70
2023-03-20T06:32:17.188Z,39.60
2023-03-20T06:33:20.160Z,38.20
2023-03-20T06:34:27.929Z,40.60
2023-03-20T06:35:31.551Z,40.00
2023-03-20T06:36:34.204Z,38.40
2023-03-20T06:37:39.569Z,41.80
2023-03-20T06:38:43.722Z,42.10
2023-03-20T06:39:47.987Z,42.20
2023-03-20T06:40:54.088Z,42.10
2023-03-20T06:41:58.003Z,43.10
2023-03-20T06:43:01.727Z,43.70
2023-03-20T06:44:06.334Z,42.90
2023-03-20T06:45:11.828Z,43.30
2023-03-20T06:46:16.271Z,42.10
2023-03-20T06:47:18.720Z,41.30
2023-03-20T06:48:21.697Z,42.40
2023-03-20T06:49:24.219Z,43.91
2023-03-20T06:50:26.676Z,40.90
2023-03-20T06:51:29.033Z,41.90
2023-03-20T06:52:33.046Z,40.80
2023-03-20T06:53:53.957Z,41.80
2023-03-20T06:54:58.555Z,42.20
2023-03-20T06:56:00.966Z,41.50
2023-03-20T06:57:03.198Z,43.70
2023-03-20T06:58:05.580Z,38.70
2023-03-20T06:59:09.070Z,42.20
2023-03-20T07:00:14.558Z,40.45
2023-03-20T07:01:19.306Z,40.10
2023-03-20T07:02:22.338Z,42.80
2023-03-20T07:03:25.110Z,40.30
2023-03-20T07:04:28.620Z,38.90
2023-03-20T07:05:34.508Z,40.00
2023-03-20T07:06:38.543Z,39.00
2023-03-20T07:07:41.563Z,40.10
2023-03-20T07:08:45.485Z,39.20
2023-03-20T07:09:48.877Z,40.90
2023-03-20T07:10:51.474Z,41.09
2023-03-20T07:11:54.468Z,37.40
2023-03-20T07:12:57.521Z,42.20
2023-03-20T07:14:00.971Z,43.70
2023-03-20T07:15:14.120Z,39.50
2023-03-20T07:16:17.415Z,40.70
2023-03-20T07:17:19.723Z,43.36
2023-03-20T07:18:22.873Z,40.64
2023-03-20T07:19:27.103Z,41.10
2023-03-20T07:20:31.705Z,41.50
2023-03-20T07:21:34.840Z,43.30
2023-03-20T07:22:38.154Z,41.90
2023-03-20T07:23:42.475Z,42.20
2023-03-20T07:24:47.247Z,43.00
2023-03-20T07:25:49.282Z,42.80
2023-03-20T07:26:52.992Z,44.60
2023-03-20T07:27:56.114Z,36.20
2023-03-20T07:28:59.974Z,42.80
2023-03-20T07:30:03.267Z,39.30
2023-03-20T07:31:06.433Z,42.55
2023-03-20T07:32:10.041Z,42.20
2023-03-20T07:33:14.791Z,43.50
2023-03-20T07:34:18.410Z,41.10
2023-03-20T07:35:21.226Z,41.00
2023-03-20T07:36:24.419Z,41.30
2023-03-20T07:37:26.786Z,39.20
2023-03-20T07:38:33.991Z,41.50
2023-03-20T07:39:41.521Z,40.90
2023-03-20T07:40:54.909Z,41.90
2023-03-20T07:41:57.320Z,40.50
2023-03-20T07:43:23.056Z,39.90
2023-03-20T07:44:35.151Z,36.30
2023-03-20T07:45:39.817Z,42.70
2023-03-20T07:46:44.372Z,34.90
2023-03-20T07:47:48.064Z,41.50
2023-03-20T07:48:50.903Z,40.30
2023-03-20T07:49:53.283Z,38.00
2023-03-20T07:50:56.817Z,38.30
2023-03-20T07:52:01.131Z,38.40
2023-03-20T07:53:05.290Z,38.60
2023-03-20T07:54:07.897Z,35.70
2023-03-20T07:55:13.122Z,35.70
2023-03-20T07:56:15.684Z,36.40
2023-03-20T07:57:19.171Z,37.30
2023-03-20T07:58:23.063Z,36.50
2023-03-20T07:59:26.115Z,35.10
2023-03-20T08:00:28.736Z,34.20
2023-03-20T08:01:31.045Z,34.40
2023-03-20T08:02:35.118Z,35.50
2023-03-20T08:03:39.531Z,33.60
2023-03-20T08:04:44.292Z,32.70
2023-03-20T08:05:47.619Z,32.60
2023-03-20T08:06:51.191Z,31.70
2023-03-20T08:07:53.686Z,27.90
2023-03-20T08:08:56.206Z,31.90
2023-03-20T08:09:58.460Z,32.30
2023-03-20T08:11:01.445Z,28.70
2023-03-20T08:12:05.290Z,28.40
2023-03-20T08:13:07.853Z,26.30
2023-03-20T08:14:11.257Z,24.90
2023-03-20T08:15:13.652Z,29.10
2023-03-20T08:16:15.944Z,27.10
2023-03-20T08:17:21.185Z,25.90
2023-03-20T08:18:22.474Z,21.30
2023-03-20T08:19:26.995Z,29.10
2023-03-20T08:20:31.289Z,28.40
2023-03-20T08:21:34.711Z,28.70
2023-03-20T08:22:38.178Z,29.50
2023-03-20T08:23:40.762Z,26.70
2023-03-20T08:24:43.117Z,26.70
2023-03-20T08:25:50.492Z,25.10
2023-03-20T08:26:53.470Z,27.30
2023-03-20T08:27:55.813Z,25.73
2023-03-20T08:28:59.024Z,28.00
2023-03-20T08:30:02.275Z,26.45
2023-03-20T08:31:10.053Z,24.70
2023-03-20T08:32:12.929Z,17.70
2023-03-20T08:33:17.492Z,18.30
2023-03-20T08:34:22.165Z,24.00
2023-03-20T08:35:32.941Z,23.00
2023-03-20T08:36:29.450Z,23.20
2023-03-20T08:37:31.877Z,26.10
2023-03-20T08:38:34.769Z,25.20
2023-03-20T08:39:40.079Z,12.36
2023-03-20T08:40:44.143Z,24.60
2023-03-20T08:41:47.010Z,24.10
2023-03-20T08:42:50.173Z,17.27
2023-03-20T08:43:53.953Z,23.90
2023-03-20T08:44:56.141Z,22.10
2023-03-20T08:45:58.759Z,23.10
2023-03-20T08:47:01.221Z,23.00
2023-03-20T08:48:04.394Z,20.10
2023-03-20T08:49:06.920Z,20.10
2023-03-20T08:50:11.468Z,20.70
2023-03-20T08:51:15.056Z,19.00
2023-03-20T08:52:18.116Z,21.50
2023-03-20T08:53:22.279Z,20.30
2023-03-20T08:54:25.755Z,22.60
2023-03-20T08:55:28.932Z,21.50
2023-03-20T08:56:31.895Z,20.30
2023-03-20T08:57:35.344Z,21.18
2023-03-20T08:58:37.762Z,20.80
2023-03-20T08:59:40.113Z,21.40
2023-03-20T09:00:43.921Z,20.40
2023-03-20T09:01:50.148Z,24.10
2023-03-20T09:02:53.326Z,23.20
2023-03-20T09:03:55.834Z,22.10
2023-03-20T09:04:58.838Z,15.40
2023-03-20T09:06:01.583Z,16.40
2023-03-20T09:07:04.071Z,20.80
2023-03-20T09:08:07.049Z,18.80
2023-03-20T09:09:10.096Z,20.60
2023-03-20T09:10:13.734Z,23.30
2023-03-20T09:11:16.606Z,22.00
2023-03-20T09:12:18.956Z,21.90
2023-03-20T09:13:27.405Z,19.60
2023-03-20T09:14:27.218Z,17.60
2023-03-20T09:15:29.924Z,22.20
2023-03-20T09:16:33.612Z,19.18
2023-03-20T09:17:36.093Z,14.60
2023-03-20T09:18:38.359Z,21.40
2023-03-20T09:19:42.606Z,23.40
2023-03-20T09:20:46.935Z,21.70
2023-03-20T09:21:49.158Z,24.00
2023-03-20T09:22:51.751Z,21.30
2023-03-20T09:23:54.234Z,22.90
2023-03-20T09:24:56.589Z,22.30
2023-03-20T09:25:59.080Z,18.50
2023-03-20T09:27:03.585Z,23.00
2023-03-20T09:28:05.751Z,23.30
2023-03-20T09:29:08.593Z,22.30
2023-03-20T09:30:12.263Z,22.60
2023-03-20T09:31:14.852Z,25.80
2023-03-20T09:32:17.257Z,25.00
2023-03-20T09:33:21.704Z,25.40
2023-03-20T09:34:24.291Z,25.30
2023-03-20T09:35:27.498Z,23.60
2023-03-20T09:36:30.024Z,21.70
2023-03-20T09:37:32.361Z,16.90
2023-03-20T09:38:34.701Z,22.40
2023-03-20T09:39:38.806Z,19.50
2023-03-20T09:41:00.070Z,17.80
2023-03-20T09:42:09.120Z,15.10
2023-03-20T09:43:30.382Z,14.50
2023-03-20T09:45:06.021Z,16.80
2023-03-20T09:46:29.709Z,14.90
2023-03-20T09:47:51.090Z,18.80
2023-03-20T09:49:15.047Z,19.60
2023-03-20T09:50:23.515Z,11.70
2023-03-20T09:51:39.376Z,16.50
2023-03-20T09:53:03.327Z,16.70
2023-03-20T09:54:09.562Z,16.80
2023-03-20T09:55:15.004Z,16.50
2023-03-20T09:56:26.368Z,14.60
2023-03-20T09:57:41.110Z,16.70
2023-03-20T09:58:47.049Z,14.70
2023-03-20T09:59:52.973Z,16.90
2023-03-20T10:00:59.055Z,16.70
2023-03-20T10:02:19.389Z,16.70
2023-03-20T10:03:34.754Z,11.90
2023-03-20T10:04:38.725Z,14.90
2023-03-20T10:06:01.202Z,14.50
2023-03-20T10:07:05.627Z,14.30
2023-03-20T10:08:15.014Z,16.90
2023-03-20T10:09:27.378Z,16.30
2023-03-20T10:10:39.315Z,12.40
2023-03-20T10:11:55.823Z,16.20
2023-03-20T10:13:13.709Z,15.50
2023-03-20T10:14:37.915Z,14.70
2023-03-20T10:15:54.430Z,13.80
2023-03-20T10:17:22.635Z,14.30
2023-03-20T10:18:27.697Z,13.00
2023-03-20T10:20:57.062Z,16.10
2023-03-20T10:22:26.018Z,16.30
2023-03-20T10:23:44.059Z,16.20
2023-03-20T10:24:50.012Z,16.50
2023-03-20T10:25:58.738Z,18.10
2023-03-20T10:27:22.671Z,16.70
2023-03-20T10:28:28.692Z,15.50
2023-03-20T10:29:59.388Z,16.00
2023-03-20T10:31:18.351Z,16.20
2023-03-20T10:32:30.963Z,17.20
2023-03-20T10:33:59.866Z,16.40
2023-03-20T10:35:12.110Z,16.80
2023-03-20T10:36:30.353Z,13.50
2023-03-20T10:37:57.213Z,15.50
2023-03-20T10:39:28.934Z,16.50
2023-03-20T10:40:41.580Z,15.30
2023-03-20T10:41:56.487Z,15.60
2023-03-20T10:43:18.242Z,12.20
2023-03-20T10:44:31.450Z,11.50
2023-03-20T10:45:51.057Z,14.30
2023-03-20T10:46:57.983Z,13.70
2023-03-20T10:48:04.300Z,11.50
2023-03-20T10:49:17.126Z,11.20
2023-03-20T10:50:23.688Z,12.90
2023-03-20T10:51:29.723Z,13.20
2023-03-20T10:52:35.611Z,12.20
2023-03-20T10:53:45.349Z,12.70
2023-03-20T10:54:54.527Z,13.40
2023-03-20T10:56:00.811Z,12.40
2023-03-20T10:57:06.204Z,15.40
2023-03-20T10:58:15.534Z,16.10
2023-03-20T10:59:30.694Z,14.00
2023-03-20T11:00:34.227Z,14.80
2023-03-20T11:01:36.816Z,14.45
2023-03-20T11:02:40.372Z,17.10
2023-03-20T11:03:42.661Z,16.20
2023-03-20T11:04:46.468Z,11.50
2023-03-20T11:06:08.330Z,15.40
2023-03-20T11:07:20.217Z,10.70
2023-03-20T11:08:25.946Z,11.10
2023-03-20T11:09:29.943Z,15.40
2023-03-20T11:10:35.561Z,16.10
2023-03-20T11:11:40.728Z,15.20
2023-03-20T11:12:47.629Z,16.50
2023-03-20T11:13:50.775Z,17.00
2023-03-20T11:14:57.687Z,15.90
2023-03-20T11:16:23.786Z,15.80
2023-03-20T11:17:28.252Z,17.20
2023-03-20T11:18:31.552Z,18.00
2023-03-20T11:19:36.994Z,17.30
2023-03-20T11:20:48.657Z,17.00
2023-03-20T11:21:57.209Z,15.80
2023-03-20T11:23:03.531Z,16.90
2023-03-20T11:24:11.579Z,12.60
2023-03-20T11:25:36.248Z,15.30
2023-03-20T11:26:42.592Z,16.50
2023-03-20T11:27:45.186Z,17.00
2023-03-20T11:28:55.994Z,15.20
2023-03-20T11:30:02.277Z,16.50
2023-03-20T11:31:19.866Z,17.60
2023-03-20T11:32:31.619Z,14.00
2023-03-20T11:33:40.496Z,18.00
2023-03-20T11:34:43.028Z,18.50
2023-03-20T11:35:47.201Z,15.90
2023-03-20T11:37:13.325Z,17.40
2023-03-20T11:38:21.054Z,17.20
2023-03-20T11:39:27.311Z,16.50
2023-03-20T11:40:32.727Z,16.50
2023-03-20T11:41:40.702Z,16.30
2023-03-20T11:43:04.443Z,14.00
2023-03-20T11:44:25.744Z,17.60
2023-03-20T11:46:48.802Z,16.40
2023-03-20T11:47:53.989Z,16.10
2023-03-20T11:49:05.943Z,18.40
2023-03-20T11:50:28.700Z,16.70
2023-03-20T11:51:33.920Z,14.20
2023-03-20T11:52:40.974Z,13.00
2023-03-20T11:53:56.800Z,18.20
2023-03-20T11:55:05.066Z,14.30
2023-03-20T11:56:23.918Z,15.80
2023-03-20T11:57:36.479Z,13.90
2023-03-20T11:58:54.171Z,13.90
2023-03-20T11:59:57.067Z,14.10
2023-03-20T12:01:02.722Z,14.50
2023-03-20T12:02:08.719Z,14.10
2023-03-20T12:03:48.205Z,14.10
2023-03-20T12:04:53.344Z,15.20
2023-03-20T12:05:59.820Z,12.20
2023-03-20T12:07:18.456Z,15.20
2023-03-20T12:08:27.016Z,13.70
2023-03-20T12:09:50.215Z,13.90
2023-03-20T12:10:56.128Z,14.00
2023-03-20T12:12:30.424Z,13.20
2023-03-20T12:13:36.604Z,11.60
2023-03-20T12:14:42.702Z,9.00
2023-03-20T12:15:52.665Z,14.60
2023-03-20T12:16:58.576Z,11.30
2023-03-20T12:18:05.146Z,12.70
2023-03-20T12:19:14.291Z,11.20
2023-03-20T12:20:39.626Z,12.50
2023-03-20T12:22:02.672Z,12.70
2023-03-20T12:23:28.724Z,10.10
2023-03-20T12:24:44.027Z,10.90
2023-03-20T12:26:07.193Z,12.00
2023-03-20T12:27:29.176Z,12.50
2023-03-20T12:28:56.136Z,9.80
2023-03-20T12:30:01.909Z,12.60
2023-03-20T12:31:27.093Z,11.10
2023-03-20T12:32:57.041Z,10.20
2023-03-20T12:34:10.631Z,12.40
2023-03-20T12:35:23.006Z,12.50
2023-03-20T12:36:41.085Z,12.60
2023-03-20T12:38:04.189Z,13.80
2023-03-20T12:39:29.367Z,10.80
2023-03-20T12:40:51.992Z,13.30
2023-03-20T12:42:14.282Z,12.10
2023-03-20T12:43:20.360Z,11.30
2023-03-20T12:44:47.253Z,11.70
2023-03-20T12:45:58.891Z,12.10
2023-03-20T12:47:16.854Z,10.50
2023-03-20T12:48:35.147Z,12.40
2023-03-20T12:49:47.159Z,12.10
2023-03-20T12:50:56.561Z,13.90
2023-03-20T12:52:19.066Z,12.50
2023-03-20T12:53:46.575Z,12.30
2023-03-20T12:54:58.104Z,12.70
2023-03-20T12:56:15.604Z,12.50
2023-03-20T12:57:27.951Z,12.10
2023-03-20T12:59:03.004Z,11.30
2023-03-20T13:00:21.417Z,12.50
2023-03-20T13:01:36.509Z,11.40
2023-03-20T13:02:48.315Z,11.80
2023-03-20T13:03:54.408Z,10.90
2023-03-20T13:05:16.551Z,11.50
2023-03-20T13:06:48.792Z,13.00
2023-03-20T13:08:04.202Z,11.40
2023-03-20T13:09:24.279Z,13.50
2023-03-20T13:10:31.167Z,12.20
2023-03-20T13:11:43.420Z,9.90
2023-03-20T13:13:06.897Z,13.20
2023-03-20T13:14:13.188Z,12.60
2023-03-20T13:15:36.905Z,11.90
2023-03-20T13:16:46.035Z,12.10
2023-03-20T13:17:57.867Z,14.00
2023-03-20T13:19:23.847Z,12.30
2023-03-20T13:20:29.961Z,7.80
2023-03-20T13:21:56.192Z,12.50
2023-03-20T13:23:23.546Z,11.20
2023-03-20T13:24:46.289Z,11.70
2023-03-20T13:26:08.105Z,11.90
2023-03-20T13:27:30.915Z,10.90
2023-03-20T13:28:40.410Z,12.50
2023-03-20T13:29:55.462Z,13.50
2023-03-20T13:31:34.458Z,13.60
2023-03-20T13:32:52.106Z,12.20
2023-03-20T13:34:34.287Z,12.40
2023-03-20T13:35:43.024Z,13.40
2023-03-20T13:37:22.873Z,12.00
2023-03-20T13:38:21.949Z,12.50
2023-03-20T13:39:31.328Z,13.80
2023-03-20T13:40:38.301Z,11.80
2023-03-20T13:41:42.728Z,14.80
2023-03-20T13:43:05.613Z,14.70
2023-03-20T13:44:11.647Z,13.40
2023-03-20T13:45:35.214Z,13.10
2023-03-20T13:46:58.021Z,11.80
2023-03-20T13:48:05.114Z,14.40
2023-03-20T13:49:33.655Z,13.90
2023-03-20T13:50:50.733Z,12.90
2023-03-20T13:52:15.042Z,14.10
2023-03-20T13:54:47.308Z,15.40
2023-03-20T13:56:05.685Z,15.50
2023-03-20T13:57:17.540Z,15.20
2023-03-20T13:58:46.970Z,13.90
2023-03-20T14:00:27.439Z,13.80
2023-03-20T14:01:39.173Z,13.20
2023-03-20T14:03:15.617Z,12.20
2023-03-20T14:04:23.779Z,13.70
2023-03-20T14:05:28.178Z,13.40
2023-03-20T14:06:34.667Z,15.50
2023-03-20T14:07:40.376Z,12.50
2023-03-20T14:08:48.964Z,11.50
2023-03-20T14:09:57.225Z,11.90
2023-03-20T14:11:14.028Z,11.60
2023-03-20T14:12:17.535Z,14.10
2023-03-20T14:13:21.397Z,14.00
2023-03-20T14:14:27.313Z,11.00
2023-03-20T14:15:35.854Z,12.80
2023-03-20T14:16:39.005Z,14.00
2023-03-20T14:17:46.512Z,12.60
2023-03-20T14:18:51.928Z,13.50
2023-03-20T14:19:56.780Z,17.10
2023-03-20T14:21:02.471Z,14.40
2023-03-20T14:22:06.303Z,13.70
2023-03-20T14:23:17.952Z,14.20
2023-03-20T14:24:22.519Z,14.50
2023-03-20T14:25:27.620Z,14.00
2023-03-20T14:26:33.432Z,15.10
2023-03-20T14:27:44.810Z,15.40
2023-03-20T14:28:47.227Z,13.70
2023-03-20T14:29:50.778Z,12.20
2023-03-20T14:30:57.323Z,13.40
2023-03-20T14:32:15.561Z,13.80
2023-03-20T14:33:23.871Z,12.90
2023-03-20T14:34:26.337Z,13.10
2023-03-20T14:35:28.809Z,9.70
2023-03-20T14:36:44.052Z,13.30
2023-03-20T14:38:26.069Z,13.90
2023-03-20T14:39:47.221Z,8.80
2023-03-20T14:41:02.072Z,11.90
2023-03-20T14:42:24.908Z,9.20
2023-03-20T14:43:51.652Z,12.50
2023-03-20T14:45:17.166Z,11.70
2023-03-20T14:46:35.157Z,11.60
2023-03-20T14:47:47.191Z,11.60
2023-03-20T14:48:54.221Z,11.70
2023-03-20T14:50:15.286Z,7.80
2023-03-20T14:51:33.814Z,12.40
2023-03-20T14:52:46.197Z,13.10
2023-03-20T14:53:56.760Z,13.80
2023-03-20T14:55:21.782Z,11.10
2023-03-20T14:56:33.956Z,14.50
2023-03-20T14:57:54.694Z,13.80
2023-03-20T14:58:45.281Z,13.20
2023-03-20T14:59:50.682Z,14.40
2023-03-20T15:00:53.301Z,13.60
2023-03-20T15:02:00.159Z,10.90
2023-03-20T15:03:09.533Z,12.10
2023-03-20T15:04:42.946Z,14.10
2023-03-20T15:05:46.710Z,10.80
2023-03-20T15:06:56.298Z,11.90
2023-03-20T15:08:08.459Z,13.80
2023-03-20T15:09:12.534Z,13.40
2023-03-20T15:10:15.187Z,13.50
2023-03-20T15:11:18.170Z,13.20
2023-03-20T15:12:27.898Z,13.30
2023-03-20T15:13:30.913Z,18.30
2023-03-20T15:16:08.395Z,18.00
2023-03-20T15:17:21.317Z,16.10
2023-03-20T15:18:26.409Z,16.90
2023-03-20T15:19:29.025Z,19.20
2023-03-20T15:20:31.815Z,19.27
2023-03-20T15:21:43.750Z,15.60
2023-03-20T15:22:52.012Z,4.70
2023-03-20T15:23:54.330Z,15.10